Time,TemperatureF,DewpointF,PressureIn,WindDirection,WindDirectionDegrees,WindSpeedMPH,WindSpeedGustMPH,Humidity,HourlyPrecipIn,Conditions,Clouds,dailyrainin,SoftwareType,DateUTC
2013-02-06 11:21:00,46.0,46.0,28.65,East,97,0.0,0.0,99,0.00,,,0.00,,2013-02-06 19:21:00,
2013-02-06 11:31:00,46.0,46.0,28.65,East,97,0.0,0.0,99,0.00,,,0.00,,2013-02-06 19:31:00,
2013-02-06 11:41:00,46.0,46.0,28.65,East,97,0.0,0.0,99,0.00,,,0.00,,2013-02-06 19:41:00,
2013-02-06 11:52:00,46.0,46.0,28.65,East,97,0.0,0.0,99,0.00,,,0.00,,2013-02-06 19:52:00,
2013-02-06 12:01:00,47.0,46.0,28.65,SSE,148,3.0,15.0,98,0.00,,,0.00,,2013-02-06 20:01:00,
2013-02-06 12:11:00,48.0,47.0,28.65,SE,140,7.0,15.0,96,0.00,,,0.00,,2013-02-06 20:11:00,
2013-02-06 12:21:00,48.0,47.0,28.65,SE,140,7.0,15.0,96,0.00,,,0.00,,2013-02-06 20:21:00,
2013-02-06 12:31:00,48.0,46.0,28.65,ESE,115,7.0,15.0,94,0.00,,,0.00,,2013-02-06 20:31:00,
2013-02-06 12:41:00,48.0,46.0,28.65,ESE,115,7.0,15.0,94,0.00,,,0.00,,2013-02-06 20:41:00,
2013-02-06 12:52:00,48.0,46.0,28.65,ESE,115,7.0,15.0,94,0.00,,,0.00,,2013-02-06 20:52:00,
2013-02-06 13:01:00,48.0,46.0,28.65,ESE,115,7.0,15.0,94,0.00,,,0.00,,2013-02-06 21:01:00,
2013-02-06 13:11:00,48.0,46.0,28.65,ESE,115,7.0,15.0,94,0.00,,,0.00,,2013-02-06 21:11:00,
2013-02-06 13:21:00,48.0,46.0,28.65,ESE,121,4.0,13.0,92,0.00,,,0.00,,2013-02-06 21:21:00,
2013-02-06 13:32:00,49.0,46.0,28.65,SE,134,6.0,16.0,88,0.00,,,0.00,,2013-02-06 21:32:00,
2013-02-06 13:41:00,49.0,46.0,28.65,SE,134,6.0,16.0,88,0.00,,,0.00,,2013-02-06 21:41:00,
2013-02-06 13:51:00,49.0,46.0,28.65,SE,134,6.0,16.0,88,0.00,,,0.00,,2013-02-06 21:51:00,
2013-02-06 14:01:00,49.0,45.0,28.65,SE,132,6.0,18.0,87,0.00,,,0.00,,2013-02-06 22:01:00,
2013-02-06 14:11:00,49.0,45.0,28.65,SE,132,6.0,18.0,87,0.00,,,0.00,,2013-02-06 22:11:00,
2013-02-06 14:21:00,49.0,45.0,28.65,SE,132,6.0,18.0,87,0.00,,,0.00,,2013-02-06 22:21:00,
2013-02-06 14:31:00,49.0,45.0,28.65,SE,132,6.0,18.0,87,0.00,,,0.00,,2013-02-06 22:31:00,
2013-02-06 15:01:00,49.0,45.0,26.28,SE,128,6.0,16.0,86,0.00,,,0.00,,2013-02-06 23:01:00,
2013-02-06 15:11:00,49.0,45.0,26.28,SE,128,6.0,16.0,86,0.00,,,0.00,,2013-02-06 23:11:00,
2013-02-06 15:21:00,48.0,45.0,26.28,South,177,10.0,23.0,89,0.00,,,0.00,,2013-02-06 23:21:00,
2013-02-06 15:31:00,47.0,44.0,26.28,SSE,158,7.0,26.0,90,0.00,,,0.00,,2013-02-06 23:31:00,
2013-02-06 15:41:00,47.0,44.0,26.28,SSE,158,7.0,26.0,90,0.00,,,0.00,,2013-02-06 23:41:00,
2013-02-06 15:51:00,47.0,44.0,26.28,SSE,158,7.0,26.0,90,0.00,,,0.00,,2013-02-06 23:51:00,
2013-02-06 16:01:00,48.0,44.0,26.28,ESE,123,6.0,21.0,85,0.00,,,0.00,,2013-02-07 00:01:00,
2013-02-06 16:11:00,48.0,44.0,26.28,ESE,123,6.0,21.0,85,0.00,,,0.00,,2013-02-07 00:11:00,
2013-02-06 16:21:00,48.0,44.0,26.28,ESE,123,6.0,21.0,85,0.00,,,0.00,,2013-02-07 00:21:00,
2013-02-06 16:31:00,48.0,44.0,26.28,ESE,123,12.0,20.0,87,0.00,,,0.00,,2013-02-07 00:31:00,
2013-02-06 16:41:00,48.0,44.0,26.28,ESE,123,12.0,20.0,87,0.00,,,0.00,,2013-02-07 00:41:00,
2013-02-06 16:52:00,48.0,44.0,26.28,ESE,123,12.0,20.0,87,0.00,,,0.00,,2013-02-07 00:52:00,